sensor_id;sensor_type;location;lat;lon;timestamp;P1;durP1;ratioP1;P2;durP2;ratioP2
34204;SDS011;20471;49.680;20.074;2023-05-07T00:00:37;19.20;;;16.90;;
34204;SDS011;20471;49.680;20.074;2023-05-07T00:03:22;20.60;;;17.90;;
34204;SDS011;20471;49.680;20.074;2023-05-07T00:05:50;21.10;;;17.90;;
34204;SDS011;20471;49.680;20.074;2023-05-07T00:08:19;20.80;;;17.70;;
34204;SDS011;20471;49.680;20.074;2023-05-07T00:10:48;24.00;;;18.20;;
34204;SDS011;20471;49.680;20.074;2023-05-07T00:13:16;20.80;;;17.80;;
34204;SDS011;20471;49.680;20.074;2023-05-07T00:15:44;21.50;;;17.90;;
34204;SDS011;20471;49.680;20.074;2023-05-07T00:18:12;23.30;;;17.40;;
34204;SDS011;20471;49.680;20.074;2023-05-07T00:20:40;20.80;;;17.60;;
34204;SDS011;20471;49.680;20.074;2023-05-07T00:23:09;21.20;;;17.80;;
34204;SDS011;20471;49.680;20.074;2023-05-07T00:25:37;19.30;;;16.70;;
34204;SDS011;20471;49.680;20.074;2023-05-07T00:28:05;21.40;;;17.80;;
34204;SDS011;20471;49.680;20.074;2023-05-07T00:30:33;19.60;;;17.10;;
34204;SDS011;20471;49.680;20.074;2023-05-07T00:33:01;21.70;;;17.00;;
34204;SDS011;20471;49.680;20.074;2023-05-07T00:35:29;22.20;;;17.90;;
34204;SDS011;20471;49.680;20.074;2023-05-07T00:37:57;19.40;;;16.20;;
34204;SDS011;20471;49.680;20.074;2023-05-07T00:40:26;21.40;;;15.90;;
34204;SDS011;20471;49.680;20.074;2023-05-07T00:42:54;19.70;;;15.30;;
34204;SDS011;20471;49.680;20.074;2023-05-07T00:45:27;20.40;;;17.00;;
34204;SDS011;20471;49.680;20.074;2023-05-07T00:47:57;21.10;;;16.50;;
34204;SDS011;20471;49.680;20.074;2023-05-07T00:50:28;21.80;;;17.40;;
34204;SDS011;20471;49.680;20.074;2023-05-07T00:52:57;21.20;;;17.90;;
34204;SDS011;20471;49.680;20.074;2023-05-07T00:55:26;20.10;;;16.90;;
34204;SDS011;20471;49.680;20.074;2023-05-07T00:57:54;20.20;;;16.80;;
34204;SDS011;20471;49.680;20.074;2023-05-07T01:00:22;23.30;;;17.00;;
34204;SDS011;20471;49.680;20.074;2023-05-07T01:02:51;21.30;;;17.30;;
34204;SDS011;20471;49.680;20.074;2023-05-07T01:05:19;19.30;;;16.40;;
34204;SDS011;20471;49.680;20.074;2023-05-07T01:07:50;21.80;;;17.10;;
34204;SDS011;20471;49.680;20.074;2023-05-07T01:10:20;20.70;;;16.90;;
34204;SDS011;20471;49.680;20.074;2023-05-07T01:12:49;22.60;;;18.60;;
34204;SDS011;20471;49.680;20.074;2023-05-07T01:15:18;22.40;;;18.60;;
34204;SDS011;20471;49.680;20.074;2023-05-07T01:17:46;22.10;;;18.50;;
34204;SDS011;20471;49.680;20.074;2023-05-07T01:20:14;22.10;;;18.20;;
34204;SDS011;20471;49.680;20.074;2023-05-07T01:22:42;22.10;;;17.50;;
34204;SDS011;20471;49.680;20.074;2023-05-07T01:25:11;22.90;;;17.70;;
34204;SDS011;20471;49.680;20.074;2023-05-07T01:27:39;22.30;;;18.00;;
34204;SDS011;20471;49.680;20.074;2023-05-07T01:30:11;24.70;;;19.20;;
34204;SDS011;20471;49.680;20.074;2023-05-07T01:32:43;22.60;;;18.70;;
34204;SDS011;20471;49.680;20.074;2023-05-07T01:35:19;24.50;;;19.10;;
34204;SDS011;20471;49.680;20.074;2023-05-07T01:37:50;27.50;;;20.50;;
34204;SDS011;20471;49.680;20.074;2023-05-07T01:40:18;28.60;;;20.20;;
34204;SDS011;20471;49.680;20.074;2023-05-07T01:42:47;29.40;;;21.40;;
34204;SDS011;20471;49.680;20.074;2023-05-07T01:45:15;25.30;;;20.70;;
34204;SDS011;20471;49.680;20.074;2023-05-07T01:47:44;30.20;;;23.10;;
34204;SDS011;20471;49.680;20.074;2023-05-07T01:50:12;29.70;;;20.90;;
34204;SDS011;20471;49.680;20.074;2023-05-07T01:52:44;26.30;;;21.40;;
34204;SDS011;20471;49.680;20.074;2023-05-07T01:55:12;29.80;;;22.60;;
34204;SDS011;20471;49.680;20.074;2023-05-07T01:57:41;31.70;;;22.40;;
34204;SDS011;20471;49.680;20.074;2023-05-07T02:00:09;28.20;;;21.70;;
34204;SDS011;20471;49.680;20.074;2023-05-07T02:02:37;28.20;;;21.90;;
34204;SDS011;20471;49.680;20.074;2023-05-07T02:05:06;29.60;;;21.10;;
34204;SDS011;20471;49.680;20.074;2023-05-07T02:07:34;27.40;;;20.30;;
34204;SDS011;20471;49.680;20.074;2023-05-07T02:10:02;25.60;;;20.40;;
34204;SDS011;20471;49.680;20.074;2023-05-07T02:12:31;27.50;;;20.10;;
34204;SDS011;20471;49.680;20.074;2023-05-07T02:14:59;28.60;;;19.90;;
34204;SDS011;20471;49.680;20.074;2023-05-07T02:17:28;28.60;;;21.00;;
34204;SDS011;20471;49.680;20.074;2023-05-07T02:19:58;23.80;;;19.10;;
34204;SDS011;20471;49.680;20.074;2023-05-07T02:22:27;23.60;;;18.90;;
34204;SDS011;20471;49.680;20.074;2023-05-07T02:24:55;23.40;;;19.30;;
34204;SDS011;20471;49.680;20.074;2023-05-07T02:27:23;23.70;;;17.80;;
34204;SDS011;20471;49.680;20.074;2023-05-07T02:29:51;24.60;;;18.80;;
34204;SDS011;20471;49.680;20.074;2023-05-07T02:32:19;25.30;;;18.90;;
34204;SDS011;20471;49.680;20.074;2023-05-07T02:34:50;23.50;;;18.30;;
34204;SDS011;20471;49.680;20.074;2023-05-07T02:37:18;27.20;;;19.00;;
34204;SDS011;20471;49.680;20.074;2023-05-07T02:39:46;23.30;;;18.30;;
34204;SDS011;20471;49.680;20.074;2023-05-07T02:42:15;22.40;;;16.80;;
34204;SDS011;20471;49.680;20.074;2023-05-07T02:44:43;24.10;;;18.00;;
34204;SDS011;20471;49.680;20.074;2023-05-07T02:47:13;21.10;;;16.40;;
34204;SDS011;20471;49.680;20.074;2023-05-07T02:49:43;21.20;;;16.90;;
34204;SDS011;20471;49.680;20.074;2023-05-07T02:52:11;20.10;;;15.20;;
34204;SDS011;20471;49.680;20.074;2023-05-07T02:54:39;19.50;;;15.30;;
34204;SDS011;20471;49.680;20.074;2023-05-07T02:57:07;20.00;;;15.10;;
34204;SDS011;20471;49.680;20.074;2023-05-07T02:59:35;20.20;;;15.90;;
34204;SDS011;20471;49.680;20.074;2023-05-07T03:02:04;19.90;;;14.90;;
34204;SDS011;20471;49.680;20.074;2023-05-07T03:04:32;18.40;;;14.50;;
34204;SDS011;20471;49.680;20.074;2023-05-07T03:07:00;18.40;;;14.20;;
34204;SDS011;20471;49.680;20.074;2023-05-07T03:09:28;17.60;;;14.10;;
34204;SDS011;20471;49.680;20.074;2023-05-07T03:11:57;17.70;;;14.20;;
34204;SDS011;20471;49.680;20.074;2023-05-07T03:14:25;17.60;;;14.90;;
34204;SDS011;20471;49.680;20.074;2023-05-07T03:16:53;18.60;;;13.40;;
34204;SDS011;20471;49.680;20.074;2023-05-07T03:19:21;18.50;;;14.70;;
34204;SDS011;20471;49.680;20.074;2023-05-07T03:21:49;18.50;;;14.50;;
34204;SDS011;20471;49.680;20.074;2023-05-07T03:24:18;17.80;;;14.20;;
34204;SDS011;20471;49.680;20.074;2023-05-07T03:26:46;15.70;;;13.80;;
34204;SDS011;20471;49.680;20.074;2023-05-07T03:29:14;18.50;;;14.70;;
34204;SDS011;20471;49.680;20.074;2023-05-07T03:31:42;21.80;;;14.10;;
34204;SDS011;20471;49.680;20.074;2023-05-07T03:34:11;20.20;;;15.20;;
34204;SDS011;20471;49.680;20.074;2023-05-07T03:36:39;19.00;;;14.10;;
34204;SDS011;20471;49.680;20.074;2023-05-07T03:39:07;17.00;;;14.20;;
34204;SDS011;20471;49.680;20.074;2023-05-07T03:41:36;16.90;;;13.90;;
34204;SDS011;20471;49.680;20.074;2023-05-07T03:44:04;17.90;;;14.50;;
34204;SDS011;20471;49.680;20.074;2023-05-07T03:46:32;15.00;;;13.40;;
34204;SDS011;20471;49.680;20.074;2023-05-07T03:49:01;17.50;;;14.20;;
34204;SDS011;20471;49.680;20.074;2023-05-07T03:51:30;17.00;;;14.30;;
34204;SDS011;20471;49.680;20.074;2023-05-07T03:53:58;18.00;;;14.40;;
34204;SDS011;20471;49.680;20.074;2023-05-07T03:56:27;16.90;;;14.30;;
34204;SDS011;20471;49.680;20.074;2023-05-07T03:58:55;18.50;;;15.40;;
34204;SDS011;20471;49.680;20.074;2023-05-07T04:01:23;16.90;;;15.00;;
34204;SDS011;20471;49.680;20.074;2023-05-07T04:03:51;17.00;;;15.20;;
34204;SDS011;20471;49.680;20.074;2023-05-07T04:06:19;18.20;;;14.90;;
34204;SDS011;20471;49.680;20.074;2023-05-07T04:08:48;18.40;;;14.90;;
34204;SDS011;20471;49.680;20.074;2023-05-07T04:11:16;19.20;;;15.50;;
34204;SDS011;20471;49.680;20.074;2023-05-07T04:13:44;20.40;;;15.80;;
34204;SDS011;20471;49.680;20.074;2023-05-07T04:16:12;21.30;;;17.40;;
34204;SDS011;20471;49.680;20.074;2023-05-07T04:18:41;21.50;;;17.20;;
34204;SDS011;20471;49.680;20.074;2023-05-07T04:21:19;20.30;;;17.00;;
34204;SDS011;20471;49.680;20.074;2023-05-07T04:23:48;20.30;;;16.90;;
34204;SDS011;20471;49.680;20.074;2023-05-07T04:26:17;21.90;;;17.20;;
34204;SDS011;20471;49.680;20.074;2023-05-07T04:28:45;22.60;;;18.20;;
34204;SDS011;20471;49.680;20.074;2023-05-07T04:31:13;23.30;;;18.70;;
34204;SDS011;20471;49.680;20.074;2023-05-07T04:33:42;24.20;;;19.90;;
34204;SDS011;20471;49.680;20.074;2023-05-07T04:36:10;26.70;;;20.10;;
34204;SDS011;20471;49.680;20.074;2023-05-07T04:38:38;26.00;;;21.50;;
34204;SDS011;20471;49.680;20.074;2023-05-07T04:41:08;25.50;;;21.70;;
34204;SDS011;20471;49.680;20.074;2023-05-07T04:43:37;27.90;;;22.50;;
34204;SDS011;20471;49.680;20.074;2023-05-07T04:46:06;27.80;;;23.20;;
34204;SDS011;20471;49.680;20.074;2023-05-07T04:48:34;28.90;;;23.20;;
34204;SDS011;20471;49.680;20.074;2023-05-07T04:51:03;28.60;;;22.50;;
34204;SDS011;20471;49.680;20.074;2023-05-07T04:53:31;29.90;;;24.20;;
34204;SDS011;20471;49.680;20.074;2023-05-07T04:55:59;28.50;;;22.20;;
34204;SDS011;20471;49.680;20.074;2023-05-07T04:58:27;25.70;;;22.40;;
34204;SDS011;20471;49.680;20.074;2023-05-07T05:00:58;31.70;;;23.60;;
34204;SDS011;20471;49.680;20.074;2023-05-07T05:03:27;27.50;;;22.20;;
34204;SDS011;20471;49.680;20.074;2023-05-07T05:05:55;26.40;;;21.70;;
34204;SDS011;20471;49.680;20.074;2023-05-07T05:08:25;28.50;;;22.10;;
34204;SDS011;20471;49.680;20.074;2023-05-07T05:10:54;29.70;;;22.90;;
34204;SDS011;20471;49.680;20.074;2023-05-07T05:13:22;26.70;;;21.60;;
34204;SDS011;20471;49.680;20.074;2023-05-07T05:15:50;30.30;;;22.30;;
34204;SDS011;20471;49.680;20.074;2023-05-07T05:18:19;28.10;;;21.40;;
34204;SDS011;20471;49.680;20.074;2023-05-07T05:20:47;25.30;;;21.50;;
34204;SDS011;20471;49.680;20.074;2023-05-07T05:23:15;22.80;;;19.50;;
34204;SDS011;20471;49.680;20.074;2023-05-07T05:25:44;22.00;;;17.60;;
34204;SDS011;20471;49.680;20.074;2023-05-07T05:28:12;22.20;;;18.30;;
34204;SDS011;20471;49.680;20.074;2023-05-07T05:30:40;21.70;;;17.30;;
34204;SDS011;20471;49.680;20.074;2023-05-07T05:33:08;21.90;;;17.00;;
34204;SDS011;20471;49.680;20.074;2023-05-07T05:35:36;21.20;;;15.30;;
34204;SDS011;20471;49.680;20.074;2023-05-07T05:38:04;18.40;;;15.00;;
34204;SDS011;20471;49.680;20.074;2023-05-07T05:40:32;18.90;;;14.30;;
34204;SDS011;20471;49.680;20.074;2023-05-07T05:43:00;18.90;;;14.00;;
34204;SDS011;20471;49.680;20.074;2023-05-07T05:45:29;18.90;;;14.70;;
34204;SDS011;20471;49.680;20.074;2023-05-07T05:47:57;18.30;;;14.90;;
34204;SDS011;20471;49.680;20.074;2023-05-07T05:50:25;19.80;;;13.90;;
34204;SDS011;20471;49.680;20.074;2023-05-07T05:52:53;19.30;;;14.50;;
34204;SDS011;20471;49.680;20.074;2023-05-07T05:55:21;19.00;;;15.10;;
34204;SDS011;20471;49.680;20.074;2023-05-07T05:57:49;20.50;;;15.90;;
34204;SDS011;20471;49.680;20.074;2023-05-07T06:00:18;18.60;;;13.10;;
34204;SDS011;20471;49.680;20.074;2023-05-07T06:02:48;18.80;;;12.90;;
34204;SDS011;20471;49.680;20.074;2023-05-07T06:05:17;18.80;;;13.80;;
34204;SDS011;20471;49.680;20.074;2023-05-07T06:07:45;21.00;;;13.20;;
34204;SDS011;20471;49.680;20.074;2023-05-07T06:10:13;16.80;;;13.20;;
34204;SDS011;20471;49.680;20.074;2023-05-07T06:12:41;13.90;;;11.10;;
34204;SDS011;20471;49.680;20.074;2023-05-07T06:15:10;17.40;;;11.60;;
34204;SDS011;20471;49.680;20.074;2023-05-07T06:17:38;16.70;;;12.00;;
34204;SDS011;20471;49.680;20.074;2023-05-07T06:20:06;16.50;;;11.70;;
34204;SDS011;20471;49.680;20.074;2023-05-07T06:22:35;14.90;;;11.00;;
34204;SDS011;20471;49.680;20.074;2023-05-07T06:25:03;13.20;;;10.80;;
34204;SDS011;20471;49.680;20.074;2023-05-07T06:27:31;14.60;;;10.70;;
34204;SDS011;20471;49.680;20.074;2023-05-07T06:29:59;14.40;;;11.10;;
34204;SDS011;20471;49.680;20.074;2023-05-07T06:32:27;14.70;;;10.50;;
34204;SDS011;20471;49.680;20.074;2023-05-07T06:34:55;14.50;;;10.70;;
34204;SDS011;20471;49.680;20.074;2023-05-07T06:37:23;13.90;;;10.30;;
34204;SDS011;20471;49.680;20.074;2023-05-07T06:39:51;14.60;;;10.10;;
34204;SDS011;20471;49.680;20.074;2023-05-07T06:42:19;14.00;;;10.40;;
34204;SDS011;20471;49.680;20.074;2023-05-07T06:44:47;14.10;;;9.50;;
34204;SDS011;20471;49.680;20.074;2023-05-07T06:47:15;13.30;;;9.90;;
34204;SDS011;20471;49.680;20.074;2023-05-07T06:49:43;10.00;;;8.70;;
34204;SDS011;20471;49.680;20.074;2023-05-07T06:52:11;14.90;;;10.00;;
34204;SDS011;20471;49.680;20.074;2023-05-07T06:54:39;11.60;;;8.90;;
34204;SDS011;20471;49.680;20.074;2023-05-07T06:57:07;11.60;;;8.60;;
34204;SDS011;20471;49.680;20.074;2023-05-07T06:59:35;12.70;;;8.60;;
34204;SDS011;20471;49.680;20.074;2023-05-07T07:02:03;10.10;;;8.00;;
34204;SDS011;20471;49.680;20.074;2023-05-07T07:04:32;10.30;;;7.90;;
34204;SDS011;20471;49.680;20.074;2023-05-07T07:07:00;8.90;;;7.10;;
34204;SDS011;20471;49.680;20.074;2023-05-07T07:09:28;10.60;;;7.60;;
34204;SDS011;20471;49.680;20.074;2023-05-07T07:11:56;7.60;;;6.50;;
34204;SDS011;20471;49.680;20.074;2023-05-07T07:14:24;7.60;;;6.70;;
34204;SDS011;20471;49.680;20.074;2023-05-07T07:16:52;9.20;;;6.50;;
34204;SDS011;20471;49.680;20.074;2023-05-07T07:19:20;8.00;;;6.70;;
34204;SDS011;20471;49.680;20.074;2023-05-07T07:21:48;9.30;;;6.30;;
34204;SDS011;20471;49.680;20.074;2023-05-07T07:24:16;7.60;;;6.10;;
34204;SDS011;20471;49.680;20.074;2023-05-07T07:26:47;5.50;;;4.00;;
34204;SDS011;20471;49.680;20.074;2023-05-07T07:29:15;4.90;;;3.70;;
34204;SDS011;20471;49.680;20.074;2023-05-07T07:31:44;5.20;;;4.30;;
34204;SDS011;20471;49.680;20.074;2023-05-07T07:34:13;4.80;;;2.80;;
34204;SDS011;20471;49.680;20.074;2023-05-07T07:36:41;3.10;;;2.80;;
34204;SDS011;20471;49.680;20.074;2023-05-07T07:39:09;3.60;;;3.30;;
34204;SDS011;20471;49.680;20.074;2023-05-07T07:41:37;3.60;;;3.10;;
34204;SDS011;20471;49.680;20.074;2023-05-07T07:44:05;3.80;;;3.10;;
34204;SDS011;20471;49.680;20.074;2023-05-07T07:46:33;4.30;;;3.00;;
34204;SDS011;20471;49.680;20.074;2023-05-07T07:49:02;3.00;;;2.50;;
34204;SDS011;20471;49.680;20.074;2023-05-07T07:51:30;6.50;;;4.30;;
34204;SDS011;20471;49.680;20.074;2023-05-07T07:54:01;2.10;;;1.60;;
34204;SDS011;20471;49.680;20.074;2023-05-07T07:56:29;1.90;;;1.70;;
34204;SDS011;20471;49.680;20.074;2023-05-07T07:58:59;1.90;;;1.60;;
34204;SDS011;20471;49.680;20.074;2023-05-07T08:01:30;2.40;;;2.00;;
34204;SDS011;20471;49.680;20.074;2023-05-07T08:04:00;1.70;;;1.40;;
34204;SDS011;20471;49.680;20.074;2023-05-07T08:06:30;3.00;;;1.50;;
34204;SDS011;20471;49.680;20.074;2023-05-07T08:09:01;2.20;;;1.40;;
34204;SDS011;20471;49.680;20.074;2023-05-07T08:11:35;1.50;;;1.40;;
34204;SDS011;20471;49.680;20.074;2023-05-07T08:14:08;1.60;;;1.50;;
34204;SDS011;20471;49.680;20.074;2023-05-07T08:16:36;1.40;;;1.30;;
34204;SDS011;20471;49.680;20.074;2023-05-07T08:19:04;1.50;;;1.40;;
34204;SDS011;20471;49.680;20.074;2023-05-07T08:21:33;3.30;;;2.10;;
34204;SDS011;20471;49.680;20.074;2023-05-07T08:24:27;2.10;;;1.20;;
34204;SDS011;20471;49.680;20.074;2023-05-07T08:26:57;1.30;;;1.20;;
34204;SDS011;20471;49.680;20.074;2023-05-07T08:29:25;1.40;;;1.20;;
34204;SDS011;20471;49.680;20.074;2023-05-07T08:32:00;1.30;;;1.10;;
34204;SDS011;20471;49.680;20.074;2023-05-07T08:34:36;2.00;;;1.30;;
34204;SDS011;20471;49.680;20.074;2023-05-07T08:37:04;2.10;;;1.50;;
34204;SDS011;20471;49.680;20.074;2023-05-07T08:39:36;1.40;;;1.30;;
34204;SDS011;20471;49.680;20.074;2023-05-07T08:42:13;1.90;;;1.40;;
34204;SDS011;20471;49.680;20.074;2023-05-07T08:44:48;1.00;;;0.90;;
34204;SDS011;20471;49.680;20.074;2023-05-07T08:47:26;0.80;;;0.60;;
34204;SDS011;20471;49.680;20.074;2023-05-07T08:50:02;1.00;;;0.50;;
34204;SDS011;20471;49.680;20.074;2023-05-07T08:52:30;0.70;;;0.70;;
34204;SDS011;20471;49.680;20.074;2023-05-07T08:54:59;0.90;;;0.90;;
34204;SDS011;20471;49.680;20.074;2023-05-07T08:57:31;1.60;;;1.40;;
34204;SDS011;20471;49.680;20.074;2023-05-07T09:00:04;1.10;;;1.00;;
34204;SDS011;20471;49.680;20.074;2023-05-07T09:02:39;2.00;;;1.10;;
34204;SDS011;20471;49.680;20.074;2023-05-07T09:05:31;1.50;;;1.30;;
34204;SDS011;20471;49.680;20.074;2023-05-07T09:08:02;0.70;;;0.70;;
34204;SDS011;20471;49.680;20.074;2023-05-07T09:10:32;1.50;;;1.10;;
34204;SDS011;20471;49.680;20.074;2023-05-07T09:13:02;2.10;;;1.80;;
34204;SDS011;20471;49.680;20.074;2023-05-07T09:15:30;1.70;;;1.60;;
34204;SDS011;20471;49.680;20.074;2023-05-07T09:17:59;2.10;;;1.90;;
34204;SDS011;20471;49.680;20.074;2023-05-07T09:20:31;1.50;;;1.40;;
34204;SDS011;20471;49.680;20.074;2023-05-07T09:22:59;1.70;;;1.50;;
34204;SDS011;20471;49.680;20.074;2023-05-07T09:25:31;1.20;;;1.10;;
34204;SDS011;20471;49.680;20.074;2023-05-07T09:28:01;2.60;;;1.90;;
34204;SDS011;20471;49.680;20.074;2023-05-07T09:30:33;2.10;;;1.50;;
34204;SDS011;20471;49.680;20.074;2023-05-07T09:33:02;1.40;;;1.10;;
34204;SDS011;20471;49.680;20.074;2023-05-07T09:35:31;2.20;;;1.20;;
34204;SDS011;20471;49.680;20.074;2023-05-07T09:38:01;1.30;;;1.20;;
34204;SDS011;20471;49.680;20.074;2023-05-07T09:40:30;1.80;;;1.10;;
34204;SDS011;20471;49.680;20.074;2023-05-07T09:43:11;1.50;;;1.40;;
34204;SDS011;20471;49.680;20.074;2023-05-07T09:45:41;1.00;;;1.00;;
34204;SDS011;20471;49.680;20.074;2023-05-07T09:48:10;3.10;;;2.10;;
34204;SDS011;20471;49.680;20.074;2023-05-07T09:50:44;6.60;;;3.90;;
34204;SDS011;20471;49.680;20.074;2023-05-07T09:53:17;4.10;;;2.60;;
34204;SDS011;20471;49.680;20.074;2023-05-07T09:55:47;1.70;;;1.40;;
34204;SDS011;20471;49.680;20.074;2023-05-07T09:58:16;3.90;;;1.90;;
34204;SDS011;20471;49.680;20.074;2023-05-07T10:00:46;1.90;;;1.40;;
34204;SDS011;20471;49.680;20.074;2023-05-07T10:03:16;1.80;;;1.40;;
34204;SDS011;20471;49.680;20.074;2023-05-07T10:05:50;2.10;;;1.50;;
34204;SDS011;20471;49.680;20.074;2023-05-07T10:08:19;4.40;;;1.50;;
34204;SDS011;20471;49.680;20.074;2023-05-07T10:10:48;3.10;;;1.80;;
34204;SDS011;20471;49.680;20.074;2023-05-07T10:13:20;1.90;;;1.60;;
34204;SDS011;20471;49.680;20.074;2023-05-07T10:15:48;1.30;;;1.20;;
34204;SDS011;20471;49.680;20.074;2023-05-07T10:18:19;1.90;;;1.40;;
34204;SDS011;20471;49.680;20.074;2023-05-07T10:20:51;2.00;;;1.60;;
34204;SDS011;20471;49.680;20.074;2023-05-07T10:23:24;2.90;;;2.00;;
34204;SDS011;20471;49.680;20.074;2023-05-07T10:25:54;7.70;;;2.70;;
34204;SDS011;20471;49.680;20.074;2023-05-07T10:28:24;3.70;;;3.00;;
34204;SDS011;20471;49.680;20.074;2023-05-07T10:33:49;1.80;;;1.70;;
34204;SDS011;20471;49.680;20.074;2023-05-07T10:36:21;3.20;;;2.00;;
34204;SDS011;20471;49.680;20.074;2023-05-07T10:38:50;2.40;;;1.90;;
34204;SDS011;20471;49.680;20.074;2023-05-07T10:41:18;2.30;;;1.80;;
34204;SDS011;20471;49.680;20.074;2023-05-07T10:43:51;2.50;;;2.30;;
34204;SDS011;20471;49.680;20.074;2023-05-07T10:46:22;3.50;;;2.80;;
34204;SDS011;20471;49.680;20.074;2023-05-07T10:51:35;4.60;;;2.20;;
34204;SDS011;20471;49.680;20.074;2023-05-07T10:56:45;3.40;;;2.80;;
34204;SDS011;20471;49.680;20.074;2023-05-07T10:59:33;2.50;;;2.30;;
34204;SDS011;20471;49.680;20.074;2023-05-07T11:02:08;2.50;;;2.30;;
34204;SDS011;20471;49.680;20.074;2023-05-07T11:04:47;2.70;;;2.20;;
34204;SDS011;20471;49.680;20.074;2023-05-07T11:13:49;1.70;;;1.60;;
34204;SDS011;20471;49.680;20.074;2023-05-07T11:16:21;2.20;;;2.00;;
34204;SDS011;20471;49.680;20.074;2023-05-07T11:18:52;2.90;;;2.40;;
34204;SDS011;20471;49.680;20.074;2023-05-07T11:24:05;2.30;;;1.90;;
34204;SDS011;20471;49.680;20.074;2023-05-07T11:26:46;1.70;;;1.60;;
34204;SDS011;20471;49.680;20.074;2023-05-07T11:29:19;2.10;;;1.90;;
34204;SDS011;20471;49.680;20.074;2023-05-07T11:31:51;2.00;;;1.80;;
34204;SDS011;20471;49.680;20.074;2023-05-07T11:34:23;4.00;;;2.30;;
34204;SDS011;20471;49.680;20.074;2023-05-07T11:36:53;1.80;;;1.70;;
34204;SDS011;20471;49.680;20.074;2023-05-07T11:39:30;2.30;;;2.10;;
34204;SDS011;20471;49.680;20.074;2023-05-07T11:42:02;2.70;;;2.10;;
34204;SDS011;20471;49.680;20.074;2023-05-07T11:44:41;3.20;;;2.50;;
34204;SDS011;20471;49.680;20.074;2023-05-07T11:47:18;2.00;;;1.70;;
34204;SDS011;20471;49.680;20.074;2023-05-07T11:49:51;6.00;;;2.00;;
34204;SDS011;20471;49.680;20.074;2023-05-07T11:52:21;2.70;;;2.40;;
34204;SDS011;20471;49.680;20.074;2023-05-07T11:54:52;3.30;;;3.00;;
34204;SDS011;20471;49.680;20.074;2023-05-07T11:57:23;4.30;;;3.30;;
34204;SDS011;20471;49.680;20.074;2023-05-07T11:59:52;4.30;;;3.30;;
34204;SDS011;20471;49.680;20.074;2023-05-07T12:02:21;4.00;;;3.40;;
34204;SDS011;20471;49.680;20.074;2023-05-07T12:04:51;3.90;;;3.20;;
34204;SDS011;20471;49.680;20.074;2023-05-07T12:07:20;4.80;;;3.80;;
34204;SDS011;20471;49.680;20.074;2023-05-07T12:09:51;5.10;;;3.80;;
34204;SDS011;20471;49.680;20.074;2023-05-07T12:12:19;5.20;;;4.50;;
34204;SDS011;20471;49.680;20.074;2023-05-07T12:14:48;6.10;;;5.30;;
34204;SDS011;20471;49.680;20.074;2023-05-07T12:17:16;5.90;;;5.00;;
34204;SDS011;20471;49.680;20.074;2023-05-07T12:19:46;5.90;;;5.10;;
34204;SDS011;20471;49.680;20.074;2023-05-07T12:22:15;6.60;;;5.30;;
34204;SDS011;20471;49.680;20.074;2023-05-07T12:24:44;6.00;;;4.90;;
34204;SDS011;20471;49.680;20.074;2023-05-07T12:27:16;6.80;;;5.70;;
34204;SDS011;20471;49.680;20.074;2023-05-07T12:29:50;8.00;;;5.80;;
34204;SDS011;20471;49.680;20.074;2023-05-07T12:32:18;7.60;;;5.80;;
34204;SDS011;20471;49.680;20.074;2023-05-07T12:34:51;6.30;;;5.40;;
34204;SDS011;20471;49.680;20.074;2023-05-07T12:37:26;7.80;;;6.20;;
34204;SDS011;20471;49.680;20.074;2023-05-07T12:40:04;9.80;;;6.30;;
34204;SDS011;20471;49.680;20.074;2023-05-07T12:42:37;7.60;;;6.40;;
34204;SDS011;20471;49.680;20.074;2023-05-07T12:45:15;9.00;;;6.90;;
34204;SDS011;20471;49.680;20.074;2023-05-07T12:47:44;10.10;;;6.70;;
34204;SDS011;20471;49.680;20.074;2023-05-07T12:50:13;15.70;;;8.30;;
34204;SDS011;20471;49.680;20.074;2023-05-07T12:52:42;12.10;;;8.00;;
34204;SDS011;20471;49.680;20.074;2023-05-07T12:55:15;10.70;;;7.60;;
34204;SDS011;20471;49.680;20.074;2023-05-07T12:57:48;9.80;;;7.10;;
34204;SDS011;20471;49.680;20.074;2023-05-07T13:00:17;9.70;;;7.70;;
34204;SDS011;20471;49.680;20.074;2023-05-07T13:02:59;10.90;;;7.50;;
34204;SDS011;20471;49.680;20.074;2023-05-07T13:05:27;9.50;;;7.50;;
34204;SDS011;20471;49.680;20.074;2023-05-07T13:07:56;8.20;;;7.10;;
34204;SDS011;20471;49.680;20.074;2023-05-07T13:10:24;9.70;;;7.70;;
34204;SDS011;20471;49.680;20.074;2023-05-07T13:12:53;8.80;;;7.70;;
34204;SDS011;20471;49.680;20.074;2023-05-07T13:15:21;10.60;;;8.10;;
34204;SDS011;20471;49.680;20.074;2023-05-07T13:17:49;12.60;;;8.20;;
34204;SDS011;20471;49.680;20.074;2023-05-07T13:20:17;8.80;;;7.90;;
34204;SDS011;20471;49.680;20.074;2023-05-07T13:22:46;13.20;;;9.00;;
34204;SDS011;20471;49.680;20.074;2023-05-07T13:25:14;9.70;;;8.70;;
34204;SDS011;20471;49.680;20.074;2023-05-07T13:27:42;9.90;;;8.10;;
34204;SDS011;20471;49.680;20.074;2023-05-07T13:30:10;10.80;;;8.40;;
34204;SDS011;20471;49.680;20.074;2023-05-07T13:32:38;12.10;;;9.40;;
34204;SDS011;20471;49.680;20.074;2023-05-07T13:35:06;9.50;;;8.40;;
34204;SDS011;20471;49.680;20.074;2023-05-07T13:37:35;11.40;;;9.20;;
34204;SDS011;20471;49.680;20.074;2023-05-07T13:40:03;9.80;;;8.50;;
34204;SDS011;20471;49.680;20.074;2023-05-07T13:42:32;11.50;;;9.80;;
34204;SDS011;20471;49.680;20.074;2023-05-07T13:45:00;10.60;;;8.70;;
34204;SDS011;20471;49.680;20.074;2023-05-07T13:47:31;8.70;;;7.60;;
34204;SDS011;20471;49.680;20.074;2023-05-07T13:49:59;11.90;;;8.40;;
34204;SDS011;20471;49.680;20.074;2023-05-07T13:52:27;10.80;;;9.10;;
34204;SDS011;20471;49.680;20.074;2023-05-07T13:54:55;10.70;;;9.40;;
34204;SDS011;20471;49.680;20.074;2023-05-07T13:57:25;10.90;;;8.90;;
34204;SDS011;20471;49.680;20.074;2023-05-07T13:59:53;10.00;;;9.00;;
34204;SDS011;20471;49.680;20.074;2023-05-07T14:02:21;10.70;;;8.70;;
34204;SDS011;20471;49.680;20.074;2023-05-07T14:04:49;9.40;;;8.10;;
34204;SDS011;20471;49.680;20.074;2023-05-07T14:07:17;11.60;;;8.20;;
34204;SDS011;20471;49.680;20.074;2023-05-07T14:09:45;12.50;;;9.10;;
34204;SDS011;20471;49.680;20.074;2023-05-07T14:12:13;11.00;;;9.20;;
34204;SDS011;20471;49.680;20.074;2023-05-07T14:14:42;13.70;;;10.00;;
34204;SDS011;20471;49.680;20.074;2023-05-07T14:17:10;12.20;;;9.90;;
34204;SDS011;20471;49.680;20.074;2023-05-07T14:19:38;14.10;;;9.70;;
34204;SDS011;20471;49.680;20.074;2023-05-07T14:22:06;13.60;;;9.70;;
34204;SDS011;20471;49.680;20.074;2023-05-07T14:24:34;10.20;;;8.00;;
34204;SDS011;20471;49.680;20.074;2023-05-07T14:27:02;12.00;;;9.30;;
34204;SDS011;20471;49.680;20.074;2023-05-07T14:29:30;13.30;;;9.50;;
34204;SDS011;20471;49.680;20.074;2023-05-07T14:31:58;11.80;;;8.80;;
34204;SDS011;20471;49.680;20.074;2023-05-07T14:34:26;9.60;;;7.90;;
34204;SDS011;20471;49.680;20.074;2023-05-07T14:36:54;11.10;;;7.70;;
34204;SDS011;20471;49.680;20.074;2023-05-07T14:39:23;9.90;;;7.80;;
34204;SDS011;20471;49.680;20.074;2023-05-07T14:41:51;8.60;;;7.10;;
34204;SDS011;20471;49.680;20.074;2023-05-07T14:44:21;8.50;;;7.50;;
34204;SDS011;20471;49.680;20.074;2023-05-07T14:46:49;9.70;;;8.00;;
34204;SDS011;20471;49.680;20.074;2023-05-07T14:49:17;13.20;;;9.30;;
34204;SDS011;20471;49.680;20.074;2023-05-07T14:51:45;12.00;;;9.00;;